sensor_id;sensor_type;location;lat;lon;timestamp;temperature;humidity
18305;DHT22;9278;52.156;21.048;2022-09-09T00:02:18;12.00;99.90
18305;DHT22;9278;52.156;21.048;2022-09-09T00:04:55;11.90;99.90
18305;DHT22;9278;52.156;21.048;2022-09-09T00:07:36;11.70;99.90
18305;DHT22;9278;52.156;21.048;2022-09-09T00:10:16;11.70;99.90
18305;DHT22;9278;52.156;21.048;2022-09-09T00:12:54;11.70;99.90
18305;DHT22;9278;52.156;21.048;2022-09-09T00:15:32;11.80;99.90
18305;DHT22;9278;52.156;21.048;2022-09-09T00:18:10;11.80;99.90
18305;DHT22;9278;52.156;21.048;2022-09-09T00:20:44;11.80;99.90
18305;DHT22;9278;52.156;21.048;2022-09-09T00:23:25;11.70;99.90
18305;DHT22;9278;52.156;21.048;2022-09-09T00:25:59;11.80;99.90
18305;DHT22;9278;52.156;21.048;2022-09-09T00:28:32;11.70;99.90
18305;DHT22;9278;52.156;21.048;2022-09-09T00:31:12;11.70;99.90
18305;DHT22;9278;52.156;21.048;2022-09-09T00:33:41;11.70;99.90
18305;DHT22;9278;52.156;21.048;2022-09-09T00:36:13;11.70;99.90
18305;DHT22;9278;52.156;21.048;2022-09-09T00:38:46;11.80;99.90
18305;DHT22;9278;52.156;21.048;2022-09-09T00:41:20;11.80;99.90
18305;DHT22;9278;52.156;21.048;2022-09-09T00:43:56;11.70;99.90
18305;DHT22;9278;52.156;21.048;2022-09-09T00:46:50;11.70;99.90
18305;DHT22;9278;52.156;21.048;2022-09-09T00:49:32;11.80;99.90
18305;DHT22;9278;52.156;21.048;2022-09-09T00:52:12;11.70;99.90
18305;DHT22;9278;52.156;21.048;2022-09-09T00:54:50;11.70;99.90
18305;DHT22;9278;52.156;21.048;2022-09-09T00:57:25;11.80;99.90
18305;DHT22;9278;52.156;21.048;2022-09-09T01:02:53;11.90;99.90
18305;DHT22;9278;52.156;21.048;2022-09-09T01:05:32;11.90;99.90
18305;DHT22;9278;52.156;21.048;2022-09-09T01:08:05;12.00;99.90
18305;DHT22;9278;52.156;21.048;2022-09-09T01:10:43;12.00;99.90
18305;DHT22;9278;52.156;21.048;2022-09-09T01:13:21;12.00;99.90
18305;DHT22;9278;52.156;21.048;2022-09-09T01:15:50;11.90;99.90
18305;DHT22;9278;52.156;21.048;2022-09-09T01:18:30;12.10;99.90
18305;DHT22;9278;52.156;21.048;2022-09-09T01:21:07;12.10;99.90
18305;DHT22;9278;52.156;21.048;2022-09-09T01:24:12;12.00;99.90
18305;DHT22;9278;52.156;21.048;2022-09-09T01:26:59;12.00;99.90
18305;DHT22;9278;52.156;21.048;2022-09-09T01:29:28;12.00;99.90
18305;DHT22;9278;52.156;21.048;2022-09-09T01:31:58;11.90;99.90
18305;DHT22;9278;52.156;21.048;2022-09-09T01:34:30;12.00;99.90
18305;DHT22;9278;52.156;21.048;2022-09-09T01:37:02;12.10;99.90
18305;DHT22;9278;52.156;21.048;2022-09-09T01:39:33;12.00;99.90
18305;DHT22;9278;52.156;21.048;2022-09-09T01:42:10;12.10;99.90
18305;DHT22;9278;52.156;21.048;2022-09-09T01:44:40;12.10;99.90
18305;DHT22;9278;52.156;21.048;2022-09-09T01:47:09;12.00;99.90
18305;DHT22;9278;52.156;21.048;2022-09-09T01:49:56;12.00;99.90
18305;DHT22;9278;52.156;21.048;2022-09-09T01:52:27;12.10;99.90
18305;DHT22;9278;52.156;21.048;2022-09-09T01:54:56;12.00;99.90
18305;DHT22;9278;52.156;21.048;2022-09-09T01:57:38;12.10;99.90
18305;DHT22;9278;52.156;21.048;2022-09-09T02:00:11;12.20;99.90
18305;DHT22;9278;52.156;21.048;2022-09-09T02:02:46;12.10;99.90
18305;DHT22;9278;52.156;21.048;2022-09-09T02:05:30;12.20;99.90
18305;DHT22;9278;52.156;21.048;2022-09-09T02:08:07;12.10;99.90
18305;DHT22;9278;52.156;21.048;2022-09-09T02:10:53;12.10;99.90
18305;DHT22;9278;52.156;21.048;2022-09-09T02:13:40;12.10;99.90
18305;DHT22;9278;52.156;21.048;2022-09-09T02:16:17;12.10;99.90
18305;DHT22;9278;52.156;21.048;2022-09-09T02:18:50;12.20;99.90
18305;DHT22;9278;52.156;21.048;2022-09-09T02:21:27;12.10;99.90
18305;DHT22;9278;52.156;21.048;2022-09-09T02:23:58;12.20;99.90
18305;DHT22;9278;52.156;21.048;2022-09-09T02:26:29;12.10;99.90
18305;DHT22;9278;52.156;21.048;2022-09-09T02:29:08;12.00;99.90
18305;DHT22;9278;52.156;21.048;2022-09-09T02:31:38;12.00;99.90
18305;DHT22;9278;52.156;21.048;2022-09-09T02:34:14;12.00;99.90
18305;DHT22;9278;52.156;21.048;2022-09-09T02:36:44;12.10;99.90
18305;DHT22;9278;52.156;21.048;2022-09-09T02:39:14;12.00;99.90
18305;DHT22;9278;52.156;21.048;2022-09-09T02:41:42;12.00;99.90
18305;DHT22;9278;52.156;21.048;2022-09-09T02:44:13;12.10;99.90
18305;DHT22;9278;52.156;21.048;2022-09-09T02:47:01;12.20;99.90
18305;DHT22;9278;52.156;21.048;2022-09-09T02:49:40;12.10;99.90
18305;DHT22;9278;52.156;21.048;2022-09-09T02:52:14;12.10;99.90
18305;DHT22;9278;52.156;21.048;2022-09-09T02:54:43;12.10;99.90
18305;DHT22;9278;52.156;21.048;2022-09-09T02:57:17;12.00;99.90
18305;DHT22;9278;52.156;21.048;2022-09-09T02:59:50;12.00;99.90
18305;DHT22;9278;52.156;21.048;2022-09-09T03:02:19;12.00;99.90
18305;DHT22;9278;52.156;21.048;2022-09-09T03:04:53;12.10;99.90
18305;DHT22;9278;52.156;21.048;2022-09-09T03:07:21;12.10;99.90
18305;DHT22;9278;52.156;21.048;2022-09-09T03:09:51;12.20;99.90
18305;DHT22;9278;52.156;21.048;2022-09-09T03:12:24;12.10;99.90
18305;DHT22;9278;52.156;21.048;2022-09-09T03:14:54;12.10;99.90
18305;DHT22;9278;52.156;21.048;2022-09-09T03:17:22;12.10;99.90
18305;DHT22;9278;52.156;21.048;2022-09-09T03:19:53;12.10;99.90
18305;DHT22;9278;52.156;21.048;2022-09-09T03:22:22;12.20;99.90
18305;DHT22;9278;52.156;21.048;2022-09-09T03:24:52;12.20;99.90
18305;DHT22;9278;52.156;21.048;2022-09-09T03:27:21;12.10;99.90
18305;DHT22;9278;52.156;21.048;2022-09-09T03:29:50;12.10;99.90
18305;DHT22;9278;52.156;21.048;2022-09-09T03:32:24;12.10;99.90
18305;DHT22;9278;52.156;21.048;2022-09-09T03:34:54;12.10;99.90
18305;DHT22;9278;52.156;21.048;2022-09-09T03:37:23;12.10;99.90
18305;DHT22;9278;52.156;21.048;2022-09-09T03:39:52;12.20;99.90
18305;DHT22;9278;52.156;21.048;2022-09-09T03:42:21;12.10;99.90
18305;DHT22;9278;52.156;21.048;2022-09-09T03:44:52;12.20;99.90
18305;DHT22;9278;52.156;21.048;2022-09-09T03:47:25;12.10;99.90
18305;DHT22;9278;52.156;21.048;2022-09-09T03:50:00;12.10;99.90
18305;DHT22;9278;52.156;21.048;2022-09-09T03:52:28;12.20;99.90
18305;DHT22;9278;52.156;21.048;2022-09-09T03:54:56;12.20;99.90
18305;DHT22;9278;52.156;21.048;2022-09-09T03:57:24;12.20;99.90
18305;DHT22;9278;52.156;21.048;2022-09-09T03:59:52;12.30;99.90
18305;DHT22;9278;52.156;21.048;2022-09-09T04:02:21;12.30;99.90
18305;DHT22;9278;52.156;21.048;2022-09-09T04:04:50;12.30;99.90
18305;DHT22;9278;52.156;21.048;2022-09-09T04:07:19;12.40;99.90
18305;DHT22;9278;52.156;21.048;2022-09-09T04:09:48;12.40;99.90
18305;DHT22;9278;52.156;21.048;2022-09-09T04:12:16;12.40;99.90
18305;DHT22;9278;52.156;21.048;2022-09-09T04:14:44;12.40;99.90
18305;DHT22;9278;52.156;21.048;2022-09-09T04:17:12;12.40;99.90
18305;DHT22;9278;52.156;21.048;2022-09-09T04:19:40;12.30;99.90
18305;DHT22;9278;52.156;21.048;2022-09-09T04:22:11;12.40;99.90
18305;DHT22;9278;52.156;21.048;2022-09-09T04:24:39;12.30;99.90
18305;DHT22;9278;52.156;21.048;2022-09-09T04:27:14;12.40;99.90
18305;DHT22;9278;52.156;21.048;2022-09-09T04:29:42;12.40;99.90
18305;DHT22;9278;52.156;21.048;2022-09-09T04:32:12;12.40;99.90
18305;DHT22;9278;52.156;21.048;2022-09-09T04:34:40;12.40;99.90
18305;DHT22;9278;52.156;21.048;2022-09-09T04:37:10;12.40;99.90
18305;DHT22;9278;52.156;21.048;2022-09-09T04:39:39;12.40;99.90
18305;DHT22;9278;52.156;21.048;2022-09-09T04:42:07;12.70;99.90
18305;DHT22;9278;52.156;21.048;2022-09-09T04:44:35;12.60;99.90
18305;DHT22;9278;52.156;21.048;2022-09-09T04:47:04;12.50;99.90
18305;DHT22;9278;52.156;21.048;2022-09-09T04:49:32;12.60;99.90
18305;DHT22;9278;52.156;21.048;2022-09-09T04:52:01;12.50;99.90
18305;DHT22;9278;52.156;21.048;2022-09-09T04:54:31;12.50;99.90
18305;DHT22;9278;52.156;21.048;2022-09-09T04:56:59;12.50;99.90
18305;DHT22;9278;52.156;21.048;2022-09-09T04:59:27;12.60;99.90
18305;DHT22;9278;52.156;21.048;2022-09-09T05:01:58;12.60;99.90
18305;DHT22;9278;52.156;21.048;2022-09-09T05:04:28;12.70;99.90
18305;DHT22;9278;52.156;21.048;2022-09-09T05:06:57;12.60;99.90
18305;DHT22;9278;52.156;21.048;2022-09-09T05:09:25;12.70;99.90
18305;DHT22;9278;52.156;21.048;2022-09-09T05:11:55;12.60;99.90
18305;DHT22;9278;52.156;21.048;2022-09-09T05:14:29;12.60;99.90
18305;DHT22;9278;52.156;21.048;2022-09-09T05:16:59;12.50;99.90
18305;DHT22;9278;52.156;21.048;2022-09-09T05:19:28;12.70;99.90
18305;DHT22;9278;52.156;21.048;2022-09-09T05:21:57;12.80;99.90
18305;DHT22;9278;52.156;21.048;2022-09-09T05:24:33;12.70;99.90
18305;DHT22;9278;52.156;21.048;2022-09-09T05:27:04;12.80;99.90
18305;DHT22;9278;52.156;21.048;2022-09-09T05:29:33;12.80;99.90
18305;DHT22;9278;52.156;21.048;2022-09-09T05:32:03;12.90;99.90
18305;DHT22;9278;52.156;21.048;2022-09-09T05:34:34;12.80;99.90
18305;DHT22;9278;52.156;21.048;2022-09-09T05:37:02;12.70;99.90
18305;DHT22;9278;52.156;21.048;2022-09-09T05:39:31;13.00;99.90
18305;DHT22;9278;52.156;21.048;2022-09-09T05:42:00;12.90;99.90
18305;DHT22;9278;52.156;21.048;2022-09-09T05:44:33;12.90;99.90
18305;DHT22;9278;52.156;21.048;2022-09-09T05:47:01;13.00;99.90
18305;DHT22;9278;52.156;21.048;2022-09-09T05:49:29;12.80;99.90
18305;DHT22;9278;52.156;21.048;2022-09-09T05:51:59;12.90;99.90
18305;DHT22;9278;52.156;21.048;2022-09-09T05:54:27;13.00;99.90
18305;DHT22;9278;52.156;21.048;2022-09-09T05:56:55;12.90;99.90
18305;DHT22;9278;52.156;21.048;2022-09-09T05:59:23;12.80;99.90
18305;DHT22;9278;52.156;21.048;2022-09-09T06:01:55;13.00;99.90
18305;DHT22;9278;52.156;21.048;2022-09-09T06:04:32;13.00;99.90
18305;DHT22;9278;52.156;21.048;2022-09-09T06:07:01;12.90;99.90
18305;DHT22;9278;52.156;21.048;2022-09-09T06:09:30;13.20;99.90
18305;DHT22;9278;52.156;21.048;2022-09-09T06:11:58;13.30;99.90
18305;DHT22;9278;52.156;21.048;2022-09-09T06:14:26;13.20;99.90
18305;DHT22;9278;52.156;21.048;2022-09-09T06:16:59;13.30;99.90
18305;DHT22;9278;52.156;21.048;2022-09-09T06:19:29;13.20;99.90
18305;DHT22;9278;52.156;21.048;2022-09-09T06:21:58;13.20;99.90
18305;DHT22;9278;52.156;21.048;2022-09-09T06:24:29;13.20;99.90
18305;DHT22;9278;52.156;21.048;2022-09-09T06:26:58;13.30;99.90
18305;DHT22;9278;52.156;21.048;2022-09-09T06:29:31;13.40;99.90
18305;DHT22;9278;52.156;21.048;2022-09-09T06:32:02;13.40;99.90
18305;DHT22;9278;52.156;21.048;2022-09-09T06:34:31;13.30;99.90
18305;DHT22;9278;52.156;21.048;2022-09-09T06:36:59;13.50;99.90
18305;DHT22;9278;52.156;21.048;2022-09-09T06:39:42;13.30;99.90
18305;DHT22;9278;52.156;21.048;2022-09-09T06:42:10;13.40;99.90
18305;DHT22;9278;52.156;21.048;2022-09-09T06:44:54;13.60;99.90
18305;DHT22;9278;52.156;21.048;2022-09-09T06:47:36;13.50;99.90
18305;DHT22;9278;52.156;21.048;2022-09-09T06:50:05;13.50;99.90
18305;DHT22;9278;52.156;21.048;2022-09-09T06:52:35;13.40;99.90
18305;DHT22;9278;52.156;21.048;2022-09-09T06:55:04;13.50;99.90
18305;DHT22;9278;52.156;21.048;2022-09-09T06:57:33;13.60;99.90
18305;DHT22;9278;52.156;21.048;2022-09-09T07:00:09;13.70;99.90
18305;DHT22;9278;52.156;21.048;2022-09-09T07:02:40;13.70;99.90
18305;DHT22;9278;52.156;21.048;2022-09-09T07:05:09;13.70;99.90
18305;DHT22;9278;52.156;21.048;2022-09-09T07:07:40;13.80;99.90
18305;DHT22;9278;52.156;21.048;2022-09-09T07:10:10;13.70;99.90
18305;DHT22;9278;52.156;21.048;2022-09-09T07:12:39;13.80;99.90
18305;DHT22;9278;52.156;21.048;2022-09-09T07:15:10;13.80;99.90
18305;DHT22;9278;52.156;21.048;2022-09-09T07:17:43;13.80;99.90
18305;DHT22;9278;52.156;21.048;2022-09-09T07:20:12;13.90;99.90
18305;DHT22;9278;52.156;21.048;2022-09-09T07:22:41;13.70;99.90
18305;DHT22;9278;52.156;21.048;2022-09-09T07:25:10;14.00;99.90
18305;DHT22;9278;52.156;21.048;2022-09-09T07:27:38;13.70;99.90
18305;DHT22;9278;52.156;21.048;2022-09-09T07:30:09;13.80;99.90
18305;DHT22;9278;52.156;21.048;2022-09-09T07:32:45;14.00;99.90
18305;DHT22;9278;52.156;21.048;2022-09-09T07:35:13;14.00;99.90
18305;DHT22;9278;52.156;21.048;2022-09-09T07:37:41;14.00;99.90
18305;DHT22;9278;52.156;21.048;2022-09-09T07:40:16;14.20;99.90
18305;DHT22;9278;52.156;21.048;2022-09-09T07:42:46;14.40;99.90
18305;DHT22;9278;52.156;21.048;2022-09-09T07:45:14;14.30;99.90
18305;DHT22;9278;52.156;21.048;2022-09-09T07:47:42;14.40;99.90
18305;DHT22;9278;52.156;21.048;2022-09-09T07:50:12;14.40;99.90
18305;DHT22;9278;52.156;21.048;2022-09-09T07:52:40;14.60;99.90
18305;DHT22;9278;52.156;21.048;2022-09-09T07:55:08;14.50;99.90
18305;DHT22;9278;52.156;21.048;2022-09-09T07:57:37;14.60;99.90
18305;DHT22;9278;52.156;21.048;2022-09-09T08:00:06;14.50;99.90
18305;DHT22;9278;52.156;21.048;2022-09-09T08:02:45;14.70;99.90
18305;DHT22;9278;52.156;21.048;2022-09-09T08:05:15;14.70;99.90
18305;DHT22;9278;52.156;21.048;2022-09-09T08:07:45;14.40;99.90
18305;DHT22;9278;52.156;21.048;2022-09-09T08:10:14;14.30;99.90
18305;DHT22;9278;52.156;21.048;2022-09-09T08:12:44;14.30;99.90
18305;DHT22;9278;52.156;21.048;2022-09-09T08:15:33;14.30;99.90
18305;DHT22;9278;52.156;21.048;2022-09-09T08:18:02;14.50;99.90
18305;DHT22;9278;52.156;21.048;2022-09-09T08:20:32;14.60;99.90
18305;DHT22;9278;52.156;21.048;2022-09-09T08:23:00;14.60;1.00
18305;DHT22;9278;52.156;21.048;2022-09-09T08:25:28;14.70;1.00
18305;DHT22;9278;52.156;21.048;2022-09-09T08:27:56;14.60;1.00
18305;DHT22;9278;52.156;21.048;2022-09-09T08:30:25;14.70;99.90
18305;DHT22;9278;52.156;21.048;2022-09-09T08:32:54;14.60;29.20
18305;DHT22;9278;52.156;21.048;2022-09-09T08:35:22;14.40;99.90
18305;DHT22;9278;52.156;21.048;2022-09-09T08:37:54;14.60;1.00
18305;DHT22;9278;52.156;21.048;2022-09-09T08:40:28;14.60;94.20
18305;DHT22;9278;52.156;21.048;2022-09-09T08:43:01;14.60;1.00
18305;DHT22;9278;52.156;21.048;2022-09-09T08:45:33;14.50;99.90
18305;DHT22;9278;52.156;21.048;2022-09-09T08:48:24;14.30;1.00
18305;DHT22;9278;52.156;21.048;2022-09-09T08:50:57;14.50;1.00
18305;DHT22;9278;52.156;21.048;2022-09-09T08:53:37;14.50;1.00
18305;DHT22;9278;52.156;21.048;2022-09-09T08:56:11;14.70;1.00
18305;DHT22;9278;52.156;21.048;2022-09-09T08:58:52;14.80;1.00
18305;DHT22;9278;52.156;21.048;2022-09-09T09:01:43;15.00;1.00
18305;DHT22;9278;52.156;21.048;2022-09-09T09:04:33;15.20;99.90
18305;DHT22;9278;52.156;21.048;2022-09-09T09:07:14;15.30;99.90
18305;DHT22;9278;52.156;21.048;2022-09-09T09:09:54;15.20;99.90
18305;DHT22;9278;52.156;21.048;2022-09-09T09:12:28;15.30;99.90
18305;DHT22;9278;52.156;21.048;2022-09-09T09:14:59;15.40;99.90
18305;DHT22;9278;52.156;21.048;2022-09-09T09:17:28;15.40;99.90
18305;DHT22;9278;52.156;21.048;2022-09-09T09:20:00;15.30;99.90
18305;DHT22;9278;52.156;21.048;2022-09-09T09:22:37;15.00;99.90
18305;DHT22;9278;52.156;21.048;2022-09-09T09:25:16;15.30;99.90
18305;DHT22;9278;52.156;21.048;2022-09-09T09:27:52;15.20;99.90
18305;DHT22;9278;52.156;21.048;2022-09-09T09:30:28;15.00;99.90
18305;DHT22;9278;52.156;21.048;2022-09-09T09:33:08;14.80;99.90
18305;DHT22;9278;52.156;21.048;2022-09-09T09:35:40;14.80;99.90
18305;DHT22;9278;52.156;21.048;2022-09-09T09:38:17;15.10;99.90
18305;DHT22;9278;52.156;21.048;2022-09-09T09:41:08;15.10;99.90
18305;DHT22;9278;52.156;21.048;2022-09-09T09:43:40;15.30;99.90
18305;DHT22;9278;52.156;21.048;2022-09-09T09:46:20;15.20;99.90
18305;DHT22;9278;52.156;21.048;2022-09-09T09:48:59;15.40;99.90
18305;DHT22;9278;52.156;21.048;2022-09-09T09:51:30;15.60;99.90
18305;DHT22;9278;52.156;21.048;2022-09-09T09:54:13;15.50;99.90
18305;DHT22;9278;52.156;21.048;2022-09-09T09:56:48;15.70;99.90
18305;DHT22;9278;52.156;21.048;2022-09-09T09:59:23;15.80;99.90
18305;DHT22;9278;52.156;21.048;2022-09-09T10:02:15;15.80;99.90
18305;DHT22;9278;52.156;21.048;2022-09-09T10:04:46;15.80;99.90
18305;DHT22;9278;52.156;21.048;2022-09-09T10:07:19;16.10;99.90
18305;DHT22;9278;52.156;21.048;2022-09-09T10:09:51;16.10;99.90
18305;DHT22;9278;52.156;21.048;2022-09-09T10:12:32;15.90;99.90
18305;DHT22;9278;52.156;21.048;2022-09-09T10:15:21;15.60;99.90
18305;DHT22;9278;52.156;21.048;2022-09-09T10:17:56;15.60;99.90
18305;DHT22;9278;52.156;21.048;2022-09-09T10:20:35;15.50;99.90
18305;DHT22;9278;52.156;21.048;2022-09-09T10:23:21;15.70;99.90
18305;DHT22;9278;52.156;21.048;2022-09-09T10:26:09;15.70;99.90
18305;DHT22;9278;52.156;21.048;2022-09-09T10:31:55;15.80;99.90
18305;DHT22;9278;52.156;21.048;2022-09-09T10:34:50;15.80;99.90
18305;DHT22;9278;52.156;21.048;2022-09-09T10:37:32;15.70;99.90
18305;DHT22;9278;52.156;21.048;2022-09-09T10:40:19;15.70;99.90
18305;DHT22;9278;52.156;21.048;2022-09-09T10:42:52;15.90;99.90
18305;DHT22;9278;52.156;21.048;2022-09-09T10:45:28;15.80;99.90
18305;DHT22;9278;52.156;21.048;2022-09-09T10:48:12;15.90;99.90
18305;DHT22;9278;52.156;21.048;2022-09-09T10:51:02;15.70;99.90
18305;DHT22;9278;52.156;21.048;2022-09-09T10:53:37;15.50;99.90
18305;DHT22;9278;52.156;21.048;2022-09-09T10:56:13;15.80;99.90
18305;DHT22;9278;52.156;21.048;2022-09-09T10:58:47;15.80;99.90
18305;DHT22;9278;52.156;21.048;2022-09-09T11:01:21;15.60;99.90
18305;DHT22;9278;52.156;21.048;2022-09-09T11:03:54;15.60;99.90
18305;DHT22;9278;52.156;21.048;2022-09-09T11:06:28;15.80;99.90
18305;DHT22;9278;52.156;21.048;2022-09-09T11:08:58;16.10;99.90
18305;DHT22;9278;52.156;21.048;2022-09-09T11:11:34;15.90;99.90
18305;DHT22;9278;52.156;21.048;2022-09-09T11:14:10;16.00;99.90
18305;DHT22;9278;52.156;21.048;2022-09-09T11:16:45;15.90;99.90
18305;DHT22;9278;52.156;21.048;2022-09-09T11:19:21;15.80;99.90
18305;DHT22;9278;52.156;21.048;2022-09-09T11:21:54;15.80;99.90
18305;DHT22;9278;52.156;21.048;2022-09-09T11:24:27;15.80;99.90
18305;DHT22;9278;52.156;21.048;2022-09-09T11:27:01;15.70;99.90
18305;DHT22;9278;52.156;21.048;2022-09-09T11:29:50;15.70;99.90
18305;DHT22;9278;52.156;21.048;2022-09-09T11:32:32;15.90;99.90
18305;DHT22;9278;52.156;21.048;2022-09-09T11:35:17;15.90;99.90
18305;DHT22;9278;52.156;21.048;2022-09-09T11:38:16;15.90;99.90
18305;DHT22;9278;52.156;21.048;2022-09-09T11:40:46;16.00;99.90
18305;DHT22;9278;52.156;21.048;2022-09-09T11:43:18;15.70;99.90
18305;DHT22;9278;52.156;21.048;2022-09-09T11:45:52;15.90;99.90
18305;DHT22;9278;52.156;21.048;2022-09-09T11:48:35;15.90;99.90
18305;DHT22;9278;52.156;21.048;2022-09-09T11:51:06;16.00;99.90
18305;DHT22;9278;52.156;21.048;2022-09-09T11:53:50;16.10;99.90
18305;DHT22;9278;52.156;21.048;2022-09-09T11:56:27;16.20;99.90
18305;DHT22;9278;52.156;21.048;2022-09-09T11:58:59;16.00;99.90
18305;DHT22;9278;52.156;21.048;2022-09-09T12:04:21;16.30;99.90
18305;DHT22;9278;52.156;21.048;2022-09-09T12:06:57;16.20;99.90
18305;DHT22;9278;52.156;21.048;2022-09-09T12:09:33;16.20;99.90
18305;DHT22;9278;52.156;21.048;2022-09-09T12:12:22;16.30;99.90
18305;DHT22;9278;52.156;21.048;2022-09-09T12:15:16;16.10;99.90
18305;DHT22;9278;52.156;21.048;2022-09-09T12:17:48;16.10;99.90
18305;DHT22;9278;52.156;21.048;2022-09-09T12:20:22;16.00;99.90
18305;DHT22;9278;52.156;21.048;2022-09-09T12:23:10;15.70;99.90
18305;DHT22;9278;52.156;21.048;2022-09-09T12:25:53;15.70;99.90
18305;DHT22;9278;52.156;21.048;2022-09-09T12:28:27;15.70;99.90
18305;DHT22;9278;52.156;21.048;2022-09-09T12:31:05;15.80;99.90
18305;DHT22;9278;52.156;21.048;2022-09-09T12:33:36;15.80;99.90
18305;DHT22;9278;52.156;21.048;2022-09-09T12:36:10;16.00;99.90
18305;DHT22;9278;52.156;21.048;2022-09-09T12:38:41;16.00;99.90
18305;DHT22;9278;52.156;21.048;2022-09-09T12:41:19;15.90;99.90
18305;DHT22;9278;52.156;21.048;2022-09-09T12:43:48;16.00;99.90
18305;DHT22;9278;52.156;21.048;2022-09-09T12:46:30;15.80;99.90
18305;DHT22;9278;52.156;21.048;2022-09-09T12:49:00;16.10;99.90
18305;DHT22;9278;52.156;21.048;2022-09-09T12:51:31;16.10;99.90
18305;DHT22;9278;52.156;21.048;2022-09-09T12:54:00;16.30;99.90
18305;DHT22;9278;52.156;21.048;2022-09-09T12:56:30;16.60;99.90
18305;DHT22;9278;52.156;21.048;2022-09-09T12:58:59;16.20;99.90
18305;DHT22;9278;52.156;21.048;2022-09-09T13:01:29;16.50;99.90
18305;DHT22;9278;52.156;21.048;2022-09-09T13:03:58;16.20;99.90
18305;DHT22;9278;52.156;21.048;2022-09-09T13:06:27;15.90;99.90
18305;DHT22;9278;52.156;21.048;2022-09-09T13:08:58;15.90;99.90
18305;DHT22;9278;52.156;21.048;2022-09-09T13:11:30;16.20;99.90
18305;DHT22;9278;52.156;21.048;2022-09-09T13:14:01;16.10;99.90
18305;DHT22;9278;52.156;21.048;2022-09-09T13:16:31;15.90;99.90
18305;DHT22;9278;52.156;21.048;2022-09-09T13:19:08;15.70;99.90
18305;DHT22;9278;52.156;21.048;2022-09-09T13:21:38;15.40;99.90
18305;DHT22;9278;52.156;21.048;2022-09-09T13:24:26;15.60;99.90
18305;DHT22;9278;52.156;21.048;2022-09-09T13:26:56;15.40;99.90
18305;DHT22;9278;52.156;21.048;2022-09-09T13:29:25;15.50;99.90
18305;DHT22;9278;52.156;21.048;2022-09-09T13:31:53;15.70;99.90
18305;DHT22;9278;52.156;21.048;2022-09-09T13:34:27;15.70;99.90
18305;DHT22;9278;52.156;21.048;2022-09-09T13:36:59;15.70;99.90
18305;DHT22;9278;52.156;21.048;2022-09-09T13:39:30;15.70;99.90
18305;DHT22;9278;52.156;21.048;2022-09-09T13:41:58;15.50;99.90
18305;DHT22;9278;52.156;21.048;2022-09-09T13:44:28;15.50;99.90
18305;DHT22;9278;52.156;21.048;2022-09-09T13:47:02;15.60;99.90
18305;DHT22;9278;52.156;21.048;2022-09-09T13:49:36;15.60;99.90
18305;DHT22;9278;52.156;21.048;2022-09-09T13:52:08;15.50;99.90
18305;DHT22;9278;52.156;21.048;2022-09-09T13:54:38;15.40;99.90
18305;DHT22;9278;52.156;21.048;2022-09-09T13:57:15;15.30;99.90
18305;DHT22;9278;52.156;21.048;2022-09-09T13:59:44;15.10;99.90
18305;DHT22;9278;52.156;21.048;2022-09-09T14:02:32;15.00;99.90
18305;DHT22;9278;52.156;21.048;2022-09-09T14:05:01;15.00;99.90
18305;DHT22;9278;52.156;21.048;2022-09-09T14:07:29;15.10;99.90
18305;DHT22;9278;52.156;21.048;2022-09-09T14:09:58;15.30;99.90
18305;DHT22;9278;52.156;21.048;2022-09-09T14:12:27;15.20;99.90
18305;DHT22;9278;52.156;21.048;2022-09-09T14:14:55;15.30;99.90
18305;DHT22;9278;52.156;21.048;2022-09-09T14:17:23;15.50;99.90
18305;DHT22;9278;52.156;21.048;2022-09-09T14:19:51;15.50;99.90
18305;DHT22;9278;52.156;21.048;2022-09-09T14:22:20;15.40;99.90
18305;DHT22;9278;52.156;21.048;2022-09-09T14:24:48;15.40;99.90
18305;DHT22;9278;52.156;21.048;2022-09-09T14:27:18;15.50;99.90
18305;DHT22;9278;52.156;21.048;2022-09-09T14:29:46;15.50;99.90
18305;DHT22;9278;52.156;21.048;2022-09-09T14:32:14;15.70;99.90
18305;DHT22;9278;52.156;21.048;2022-09-09T14:34:42;15.80;99.90
18305;DHT22;9278;52.156;21.048;2022-09-09T14:37:10;15.80;99.90
18305;DHT22;9278;52.156;21.048;2022-09-09T14:39:38;15.80;99.90
18305;DHT22;9278;52.156;21.048;2022-09-09T14:42:07;15.70;99.90
18305;DHT22;9278;52.156;21.048;2022-09-09T14:44:39;15.80;99.90
18305;DHT22;9278;52.156;21.048;2022-09-09T14:47:08;16.20;99.90
18305;DHT22;9278;52.156;21.048;2022-09-09T14:49:36;16.40;99.90
18305;DHT22;9278;52.156;21.048;2022-09-09T14:52:08;16.40;99.90
18305;DHT22;9278;52.156;21.048;2022-09-09T14:54:36;16.40;99.90
18305;DHT22;9278;52.156;21.048;2022-09-09T14:57:04;16.40;99.90
18305;DHT22;9278;52.156;21.048;2022-09-09T14:59:32;16.50;99.90
18305;DHT22;9278;52.156;21.048;2022-09-09T15:02:02;16.50;99.90
18305;DHT22;9278;52.156;21.048;2022-09-09T15:04:31;16.70;99.90
18305;DHT22;9278;52.156;21.048;2022-09-09T15:06:59;16.20;99.90
18305;DHT22;9278;52.156;21.048;2022-09-09T15:09:27;16.10;99.90
18305;DHT22;9278;52.156;21.048;2022-09-09T15:11:56;16.10;99.90
18305;DHT22;9278;52.156;21.048;2022-09-09T15:14:24;16.10;99.90
18305;DHT22;9278;52.156;21.048;2022-09-09T15:16:53;15.80;99.90
18305;DHT22;9278;52.156;21.048;2022-09-09T15:19:22;15.70;99.90
18305;DHT22;9278;52.156;21.048;2022-09-09T15:21:50;15.90;99.90
18305;DHT22;9278;52.156;21.048;2022-09-09T15:24:18;16.00;99.90
18305;DHT22;9278;52.156;21.048;2022-09-09T15:26:46;16.10;99.90
18305;DHT22;9278;52.156;21.048;2022-09-09T15:29:14;16.20;99.90
18305;DHT22;9278;52.156;21.048;2022-09-09T15:31:42;16.20;99.90
18305;DHT22;9278;52.156;21.048;2022-09-09T15:34:10;16.00;99.90
18305;DHT22;9278;52.156;21.048;2022-09-09T15:36:43;16.10;99.90
18305;DHT22;9278;52.156;21.048;2022-09-09T15:39:13;16.00;99.90
18305;DHT22;9278;52.156;21.048;2022-09-09T15:41:43;16.00;99.90
18305;DHT22;9278;52.156;21.048;2022-09-09T15:44:11;16.10;99.90
18305;DHT22;9278;52.156;21.048;2022-09-09T15:46:41;16.20;99.90
18305;DHT22;9278;52.156;21.048;2022-09-09T15:49:11;15.90;99.90
18305;DHT22;9278;52.156;21.048;2022-09-09T15:51:42;15.80;99.90
18305;DHT22;9278;52.156;21.048;2022-09-09T15:54:12;15.70;99.90
18305;DHT22;9278;52.156;21.048;2022-09-09T15:56:41;15.90;99.90
18305;DHT22;9278;52.156;21.048;2022-09-09T15:59:09;15.80;99.90
18305;DHT22;9278;52.156;21.048;2022-09-09T16:01:38;15.70;99.90
18305;DHT22;9278;52.156;21.048;2022-09-09T16:04:08;15.70;99.90
18305;DHT22;9278;52.156;21.048;2022-09-09T16:06:36;15.60;99.90
18305;DHT22;9278;52.156;21.048;2022-09-09T16:09:06;15.80;99.90
18305;DHT22;9278;52.156;21.048;2022-09-09T16:11:36;15.70;99.90
18305;DHT22;9278;52.156;21.048;2022-09-09T16:14:06;15.80;99.90
18305;DHT22;9278;52.156;21.048;2022-09-09T16:16:34;15.80;99.90
18305;DHT22;9278;52.156;21.048;2022-09-09T16:19:04;15.70;99.90